Time;durP1;ratioP1;P1;durP2;ratioP2;P2;SDS_P1;SDS_P2;PMS_P1;PMS_P2;Temp;Humidity;BMP_temperature;BMP_pressure;BME280_temperature;BME280_humidity;BME280_pressure;Samples;Min_cycle;Max_cycle;Signal;HPM_P1;HPM_P2
2022/11/07 00:02:10;;;;;;;3.40;1.10;;;10.00;99.90;;;;;;5076621;28;20123;-72
2022/11/07 00:04:36;;;;;;;2.50;0.82;;;10.00;99.90;;;;;;5074616;28;20460;-69
2022/11/07 00:07:03;;;;;;;1.23;0.80;;;10.00;99.90;;;;;;5073188;28;20055;-69
2022/11/07 00:09:28;;;;;;;2.67;1.10;;;9.90;99.90;;;;;;5080555;28;20081;-69
2022/11/07 00:11:54;;;;;;;1.60;0.88;;;9.80;99.90;;;;;;5080883;28;20458;-72
2022/11/07 00:14:20;;;;;;;3.92;1.20;;;9.70;99.90;;;;;;5075020;28;20059;-70
2022/11/07 00:16:47;;;;;;;1.60;0.80;;;9.90;99.90;;;;;;5075291;28;20115;-72
2022/11/07 00:19:15;;;;;;;2.55;1.30;;;10.00;99.90;;;;;;5074553;28;20480;-70
2022/11/07 00:21:41;;;;;;;1.92;1.08;;;10.00;99.90;;;;;;5093018;28;20036;-71
2022/11/07 00:24:08;;;;;;;3.63;1.00;;;10.10;99.90;;;;;;5095790;28;20040;-72
2022/11/07 00:26:34;;;;;;;2.20;1.13;;;9.90;99.90;;;;;;5090339;28;20047;-72
2022/11/07 00:29:00;;;;;;;2.67;0.93;;;9.90;99.90;;;;;;5086220;28;20039;-72
2022/11/07 00:31:26;;;;;;;2.53;0.95;;;9.90;99.90;;;;;;5095442;28;20394;-71
2022/11/07 00:33:52;;;;;;;2.50;0.90;;;9.90;99.90;;;;;;5088326;28;20533;-71
2022/11/07 00:36:23;;;;;;;2.65;1.13;;;9.80;99.90;;;;;;5074509;28;20060;-72
2022/11/07 00:38:50;;;;;;;2.13;0.95;;;9.80;99.90;;;;;;5075139;28;20040;-70
2022/11/07 00:41:16;;;;;;;2.08;1.02;;;9.90;99.90;;;;;;5074584;28;20044;-71
2022/11/07 00:43:43;;;;;;;1.35;0.68;;;9.80;99.90;;;;;;5084108;28;20066;-72
2022/11/07 00:46:10;;;;;;;2.97;0.90;;;9.70;99.90;;;;;;5086556;28;20090;-71
2022/11/07 00:48:37;;;;;;;4.38;0.90;;;9.70;99.90;;;;;;5075111;28;20079;-72
2022/11/07 00:51:06;;;;;;;1.95;0.80;;;9.70;99.90;;;;;;5075433;28;20028;-69
2022/11/07 00:53:32;;;;;;;2.55;1.10;;;9.60;99.90;;;;;;5073898;28;20046;-72
2022/11/07 00:56:03;;;;;;;2.45;1.00;;;9.60;99.90;;;;;;5074012;28;20052;-72
2022/11/07 00:58:29;;;;;;;2.35;1.02;;;9.60;99.90;;;;;;5082531;28;20044;-68
2022/11/07 01:00:55;;;;;;;3.08;1.08;;;9.60;99.90;;;;;;5093572;28;20048;-71
2022/11/07 01:06:19;;;;;;;2.38;1.10;;;9.40;99.90;;;;;;5051626;28;20518;-70
2022/11/07 01:08:45;;;;;;;1.55;0.80;;;9.50;99.90;;;;;;5073820;28;20036;-69
2022/11/07 01:11:10;;;;;;;1.13;0.75;;;9.40;99.90;;;;;;5071694;28;20037;-71
2022/11/07 01:13:36;;;;;;;1.35;0.82;;;9.30;99.90;;;;;;5060226;28;20048;-72
2022/11/07 01:16:03;;;;;;;2.08;0.70;;;9.40;99.90;;;;;;5073095;28;20167;-69
2022/11/07 01:18:29;;;;;;;2.03;0.80;;;9.40;99.90;;;;;;5073365;28;20052;-72
2022/11/07 01:20:55;;;;;;;1.58;0.70;;;9.60;99.90;;;;;;5081901;28;20040;-72
2022/11/07 01:23:21;;;;;;;2.63;0.98;;;9.60;99.90;;;;;;5094749;28;20036;-72
2022/11/07 01:25:47;;;;;;;3.13;0.93;;;9.60;99.90;;;;;;5094630;28;20407;-71
2022/11/07 01:28:13;;;;;;;3.35;1.00;;;9.60;99.90;;;;;;5094470;28;20032;-72
2022/11/07 01:30:43;;;;;;;2.70;0.82;;;9.60;99.90;;;;;;5093789;28;20031;-72
2022/11/07 01:33:09;;;;;;;1.10;0.70;;;9.80;99.90;;;;;;5093299;28;20036;-71
2022/11/07 01:35:36;;;;;;;5.07;0.90;;;9.90;99.90;;;;;;5074556;28;20123;-72
2022/11/07 01:38:02;;;;;;;2.15;0.90;;;10.00;99.90;;;;;;5074361;28;20040;-72
2022/11/07 01:40:28;;;;;;;2.72;0.73;;;9.80;99.90;;;;;;5074264;28;20117;-69
2022/11/07 01:42:54;;;;;;;1.42;0.90;;;10.20;99.90;;;;;;5106516;28;20129;-72
2022/11/07 01:45:27;;;;;;;1.73;1.00;;;10.20;99.90;;;;;;5074529;28;20051;-69
2022/11/07 01:47:54;;;;;;;3.17;0.70;;;10.10;99.90;;;;;;5106799;28;20044;-71
2022/11/07 01:50:21;;;;;;;2.13;1.23;;;10.10;99.90;;;;;;5073428;28;20114;-71
2022/11/07 01:52:49;;;;;;;2.88;0.65;;;10.00;99.90;;;;;;5073975;28;20044;-72
2022/11/07 01:55:27;;;;;;;1.33;0.90;;;9.80;99.90;;;;;;5093663;28;20048;-68
2022/11/07 01:58:07;;;;;;;1.08;0.70;;;9.70;99.90;;;;;;5092736;28;20036;-72
2022/11/07 02:00:35;;;;;;;1.98;0.88;;;9.70;99.90;;;;;;5092260;28;20055;-72
2022/11/07 02:03:09;;;;;;;2.33;0.93;;;9.60;99.90;;;;;;5093866;28;20044;-72
2022/11/07 02:05:45;;;;;;;1.85;0.73;;;9.60;99.90;;;;;;5094251;28;20084;-71
2022/11/07 02:08:12;;;;;;;1.50;0.93;;;9.50;99.90;;;;;;5089855;28;20043;-71
2022/11/07 02:10:40;;;;;;;1.92;1.00;;;9.90;99.90;;;;;;5094318;28;20035;-69
2022/11/07 02:13:07;;;;;;;2.15;1.10;;;10.00;99.90;;;;;;5093869;28;20036;-72
2022/11/07 02:15:34;;;;;;;5.07;1.55;;;9.60;99.90;;;;;;5092544;28;20403;-72
2022/11/07 02:18:01;;;;;;;2.75;1.25;;;9.30;99.90;;;;;;5077846;28;20028;-72
2022/11/07 02:20:27;;;;;;;3.33;1.15;;;9.10;99.90;;;;;;5073903;28;20056;-72
2022/11/07 02:22:59;;;;;;;3.13;1.27;;;8.90;99.90;;;;;;5072621;28;20060;-72
2022/11/07 02:25:25;;;;;;;1.40;0.90;;;8.90;99.90;;;;;;5073863;28;20037;-71
2022/11/07 02:28:00;;;;;;;2.58;0.90;;;8.90;99.90;;;;;;5073123;28;20067;-72
2022/11/07 02:30:32;;;;;;;2.10;1.10;;;9.00;99.90;;;;;;5072358;28;20048;-71
2022/11/07 02:32:58;;;;;;;3.40;1.45;;;8.80;99.90;;;;;;5105751;28;20054;-70
2022/11/07 02:35:40;;;;;;;3.22;0.82;;;8.90;99.90;;;;;;5089824;28;20040;-69
2022/11/07 02:38:31;;;;;;;4.10;1.10;;;9.00;99.90;;;;;;5092250;28;20040;-69
2022/11/07 02:41:09;;;;;;;4.15;1.17;;;9.30;99.90;;;;;;5087517;28;20036;-69
2022/11/07 02:43:37;;;;;;;2.13;1.02;;;9.30;99.90;;;;;;5093687;28;20070;-70
2022/11/07 02:46:07;;;;;;;2.97;0.70;;;9.30;99.90;;;;;;5092783;28;20036;-72
2022/11/07 02:48:42;;;;;;;1.80;0.85;;;9.20;99.90;;;;;;5093612;28;20043;-71
2022/11/07 02:51:08;;;;;;;1.60;0.85;;;9.50;99.90;;;;;;5091690;28;20052;-72
2022/11/07 02:53:33;;;;;;;2.10;0.85;;;9.50;99.90;;;;;;5087382;28;20043;-72
2022/11/07 02:55:59;;;;;;;4.53;1.10;;;9.40;99.90;;;;;;5073284;28;20040;-72
2022/11/07 02:58:25;;;;;;;1.67;0.88;;;9.30;99.90;;;;;;5071891;28;20035;-72
2022/11/07 03:00:50;;;;;;;2.20;0.77;;;9.10;99.90;;;;;;5074928;28;20121;-71
2022/11/07 03:03:16;;;;;;;0.95;0.85;;;9.30;99.90;;;;;;5091170;28;20032;-72
2022/11/07 03:05:42;;;;;;;2.00;0.82;;;9.30;99.90;;;;;;5077313;28;20075;-69
2022/11/07 03:08:08;;;;;;;2.58;1.00;;;9.40;99.90;;;;;;5082215;28;20036;-69
2022/11/07 03:10:33;;;;;;;1.38;0.70;;;9.40;99.90;;;;;;5088754;28;20087;-72
2022/11/07 03:13:00;;;;;;;4.38;1.05;;;9.40;99.90;;;;;;5097016;28;20089;-69
2022/11/07 03:15:26;;;;;;;2.08;1.05;;;9.40;99.90;;;;;;5094624;28;20052;-68
2022/11/07 03:17:52;;;;;;;4.00;1.08;;;9.40;99.90;;;;;;5090724;28;20044;-69
2022/11/07 03:20:18;;;;;;;1.98;0.50;;;9.50;99.90;;;;;;5077276;28;20044;-71
2022/11/07 03:22:46;;;;;;;0.93;0.52;;;9.40;99.90;;;;;;5089403;28;20709;-71
2022/11/07 03:25:12;;;;;;;3.20;1.65;;;9.00;99.90;;;;;;5080291;28;20036;-69
2022/11/07 03:27:48;;;;;;;1.30;0.52;;;9.00;99.90;;;;;;5091743;28;20084;-70
2022/11/07 03:30:15;;;;;;;4.75;0.82;;;9.00;99.90;;;;;;5097375;28;20372;-71
2022/11/07 03:32:40;;;;;;;1.58;0.90;;;9.10;99.90;;;;;;5096583;28;20089;-70
2022/11/07 03:35:06;;;;;;;2.70;0.82;;;8.90;99.90;;;;;;5095011;28;20442;-69
2022/11/07 03:37:32;;;;;;;4.38;0.85;;;8.80;99.90;;;;;;5079253;28;20070;-69
2022/11/07 03:39:58;;;;;;;2.05;0.70;;;8.80;99.90;;;;;;5076861;28;20041;-71
2022/11/07 03:42:23;;;;;;;2.05;0.93;;;8.80;99.90;;;;;;5093535;28;20373;-71
2022/11/07 03:44:49;;;;;;;1.63;0.90;;;8.80;99.90;;;;;;5077747;28;20040;-70
2022/11/07 03:47:15;;;;;;;1.75;0.77;;;8.70;99.90;;;;;;5076856;28;20127;-69
2022/11/07 03:49:41;;;;;;;1.42;0.82;;;;;;;;;;5078461;28;20036;-69
2022/11/07 03:52:07;;;;;;;3.30;0.70;;;8.90;99.90;;;;;;5095179;28;20036;-68
2022/11/07 03:54:33;;;;;;;2.08;0.63;;;8.80;99.90;;;;;;5094868;28;20062;-72
2022/11/07 03:56:58;;;;;;;1.50;0.75;;;8.80;99.90;;;;;;5094932;28;20078;-71
2022/11/07 03:59:24;;;;;;;3.20;0.85;;;8.90;99.90;;;;;;5088332;28;20492;-71
2022/11/07 04:01:50;;;;;;;1.33;0.68;;;9.10;99.90;;;;;;5074761;28;20438;-70
2022/11/07 04:04:16;;;;;;;1.05;0.50;;;9.00;99.90;;;;;;5076158;28;20044;-71
2022/11/07 04:06:42;;;;;;;0.88;0.63;;;8.90;99.90;;;;;;5076587;28;20115;-72
2022/11/07 04:09:07;;;;;;;1.90;0.60;;;8.80;99.90;;;;;;5075216;28;20043;-71
2022/11/07 04:17:19;;;;;;;2.22;0.68;;;8.80;99.90;;;;;;5075716;28;20037;-70
2022/11/07 04:19:50;;;;;;;2.00;0.68;;;8.90;99.90;;;;;;5077930;28;20044;-69
2022/11/07 04:22:16;;;;;;;;;;;8.90;99.90;;;;;;5094659;28;20095;-69
2022/11/07 04:24:42;;;;;;;1.27;0.60;;;8.80;99.90;;;;;;5096429;28;19915;-71
2022/11/07 04:29:56;;;;;;;1.90;0.52;;;8.70;99.90;;;;;;5095833;28;20055;-70
2022/11/07 04:32:23;;;;;;;3.63;0.73;;;8.80;99.90;;;;;;5094320;28;20479;-71
2022/11/07 04:34:52;;;;;;;1.15;0.52;;;8.90;99.90;;;;;;5095765;28;20507;-69
2022/11/07 04:37:18;;;;;;;4.82;1.85;;;9.00;99.90;;;;;;5081162;28;20102;-71
2022/11/07 04:39:44;;;;;;;3.17;0.93;;;8.90;99.90;;;;;;5075600;28;20037;-69
2022/11/07 04:42:09;;;;;;;1.85;0.90;;;8.90;99.90;;;;;;5081432;28;20050;-70
2022/11/07 04:44:35;;;;;;;2.88;1.17;;;8.90;99.90;;;;;;5094127;28;20051;-69
2022/11/07 04:47:01;;;;;;;4.35;1.08;;;8.80;99.90;;;;;;5082578;28;20606;-70
2022/11/07 04:49:27;;;;;;;2.65;1.02;;;8.70;99.90;;;;;;5089380;28;20090;-72
2022/11/07 04:51:56;;;;;;;5.22;0.98;;;9.00;99.90;;;;;;5075760;28;20063;-70
2022/11/07 04:54:22;;;;;;;3.85;1.13;;;9.00;99.90;;;;;;5075219;28;20508;-71
2022/11/07 04:56:48;;;;;;;2.85;0.75;;;9.20;99.90;;;;;;5089342;28;20036;-72
2022/11/07 04:59:13;;;;;;;4.65;1.13;;;8.50;99.90;;;;;;5093417;28;20040;-72
2022/11/07 05:01:39;;;;;;;1.67;0.93;;;8.30;99.90;;;;;;5093858;28;20078;-69
2022/11/07 05:04:05;;;;;;;2.03;1.10;;;8.60;99.90;;;;;;5095703;28;20395;-69
2022/11/07 05:06:35;;;;;;;2.47;0.80;;;8.50;99.90;;;;;;5095151;28;20518;-70
2022/11/07 05:09:01;;;;;;;1.27;0.80;;;8.20;99.90;;;;;;5095318;28;20533;-72
2022/11/07 05:11:27;;;;;;;3.80;1.20;;;8.60;99.90;;;;;;5082159;28;20070;-69
2022/11/07 05:13:52;;;;;;;4.93;1.75;;;8.50;99.90;;;;;;5074843;28;20040;-69
2022/11/07 05:16:18;;;;;;;4.20;1.40;;;8.60;99.90;;;;;;5074568;28;20406;-70
2022/11/07 05:18:44;;;;;;;5.68;1.88;;;8.60;99.90;;;;;;5074349;28;20123;-72
2022/11/07 05:21:10;;;;;;;6.70;1.67;;;8.50;99.90;;;;;;5067924;28;20036;-69
2022/11/07 05:23:37;;;;;;;1.45;0.90;;;8.20;99.90;;;;;;5087363;28;20085;-72
2022/11/07 05:26:03;;;;;;;3.38;1.25;;;8.20;99.90;;;;;;5094653;28;20027;-68
2022/11/07 05:28:31;;;;;;;1.73;0.80;;;8.30;99.90;;;;;;5081564;28;20044;-72
2022/11/07 05:30:59;;;;;;;3.33;0.98;;;8.20;99.90;;;;;;5078895;28;20059;-69
2022/11/07 05:33:24;;;;;;;2.70;1.33;;;8.30;99.90;;;;;;5090669;28;20050;-69
2022/11/07 05:35:50;;;;;;;1.85;0.73;;;8.30;99.90;;;;;;5106696;28;20128;-72
2022/11/07 05:38:16;;;;;;;3.10;1.00;;;8.40;99.90;;;;;;5082810;28;20502;-68
2022/11/07 05:40:42;;;;;;;3.42;1.38;;;8.50;99.90;;;;;;5090421;28;20123;-70
2022/11/07 05:43:10;;;;;;;22.92;6.30;;;8.70;99.90;;;;;;5076323;28;20051;-69
2022/11/07 05:45:36;;;;;;;4.57;1.48;;;8.70;99.90;;;;;;5076500;28;20093;-68
2022/11/07 05:48:10;;;;;;;3.63;1.48;;;8.60;99.90;;;;;;5074083;28;20408;-70
2022/11/07 05:50:36;;;;;;;3.17;1.30;;;8.50;99.90;;;;;;5074246;28;20373;-69
2022/11/07 05:53:02;;;;;;;4.65;1.30;;;8.40;99.90;;;;;;5074471;28;20571;-69
2022/11/07 05:55:28;;;;;;;4.60;0.95;;;8.30;99.90;;;;;;5106907;28;20040;-69
2022/11/07 05:57:54;;;;;;;2.38;1.00;;;8.20;99.90;;;;;;5074348;28;20040;-69
2022/11/07 06:00:20;;;;;;;3.17;0.90;;;8.20;99.90;;;;;;5105196;28;20028;-69
2022/11/07 06:02:56;;;;;;;2.55;0.75;;;8.30;99.90;;;;;;5073507;28;20486;-69
2022/11/07 06:05:22;;;;;;;2.45;0.77;;;8.30;99.90;;;;;;5073259;28;20430;-70
2022/11/07 06:07:48;;;;;;;2.25;0.70;;;8.30;99.90;;;;;;5073947;28;20036;-68
2022/11/07 06:10:14;;;;;;;6.93;1.30;;;8.30;99.90;;;;;;5074151;28;20055;-69
2022/11/07 06:12:39;;;;;;;2.45;0.90;;;8.30;99.90;;;;;;5072209;28;20040;-70
2022/11/07 06:15:06;;;;;;;2.70;0.95;;;8.30;99.90;;;;;;5074200;28;20047;-68
2022/11/07 06:17:31;;;;;;;1.85;0.93;;;8.20;99.90;;;;;;5074020;28;20119;-69
2022/11/07 06:19:58;;;;;;;3.85;0.70;;;8.30;99.90;;;;;;5072649;28;20071;-70
2022/11/07 06:22:24;;;;;;;4.65;0.95;;;8.20;99.90;;;;;;5089458;28;20124;-69
2022/11/07 06:24:50;;;;;;;2.13;0.80;;;8.20;99.90;;;;;;5073933;28;20459;-69
2022/11/07 06:27:16;;;;;;;1.67;0.82;;;8.10;99.90;;;;;;5089469;28;20086;-70
2022/11/07 06:29:41;;;;;;;4.35;1.10;;;8.10;99.90;;;;;;5073889;28;20048;-69
2022/11/07 06:32:07;;;;;;;4.18;1.10;;;8.30;99.90;;;;;;5071529;28;20047;-68
2022/11/07 06:34:33;;;;;;;2.78;1.10;;;8.40;99.90;;;;;;5073274;28;20051;-69
2022/11/07 06:37:00;;;;;;;3.45;0.90;;;8.40;99.90;;;;;;5087841;28;20029;-70
2022/11/07 06:39:26;;;;;;;3.67;1.02;;;8.30;99.90;;;;;;5073390;28;20067;-69
2022/11/07 06:41:52;;;;;;;2.35;0.88;;;8.40;99.90;;;;;;5072642;28;20044;-69
2022/11/07 06:44:17;;;;;;;2.42;0.75;;;8.40;99.90;;;;;;5073836;28;20036;-69
2022/11/07 06:46:46;;;;;;;2.78;0.57;;;8.20;99.90;;;;;;5073786;28;20527;-70
2022/11/07 06:49:15;;;;;;;0.88;0.68;;;8.20;99.90;;;;;;5073925;28;20127;-69
2022/11/07 06:51:41;;;;;;;2.83;0.93;;;8.20;99.90;;;;;;5073741;28;20377;-70
2022/11/07 06:54:07;;;;;;;1.77;0.80;;;8.20;99.90;;;;;;5072055;28;20408;-70
2022/11/07 06:56:33;;;;;;;1.15;0.65;;;8.30;99.90;;;;;;5073662;28;20040;-70
2022/11/07 06:58:59;;;;;;;1.63;0.70;;;8.50;99.90;;;;;;5072362;28;20441;-68
2022/11/07 07:01:24;;;;;;;1.92;0.90;;;8.70;99.90;;;;;;5073347;28;20044;-69
2022/11/07 07:03:50;;;;;;;1.95;1.02;;;8.80;99.90;;;;;;5073380;28;20024;-70
2022/11/07 07:06:16;;;;;;;6.93;1.33;;;8.80;99.90;;;;;;5072185;28;20051;-69
2022/11/07 07:08:43;;;;;;;1.95;0.80;;;8.70;99.90;;;;;;5073554;28;20033;-69
2022/11/07 07:11:11;;;;;;;1.65;0.80;;;8.80;99.90;;;;;;5073535;28;20090;-69
2022/11/07 07:13:37;;;;;;;2.05;0.90;;;8.90;99.90;;;;;;5072210;28;20127;-71
2022/11/07 07:16:03;;;;;;;6.68;1.40;;;8.80;99.90;;;;;;5073331;28;20049;-70
2022/11/07 07:18:30;;;;;;;1.02;0.63;;;8.70;99.90;;;;;;5071964;28;20153;-69
2022/11/07 07:21:02;;;;;;;2.22;1.30;;;9.00;99.90;;;;;;5071651;28;20119;-71
2022/11/07 07:23:27;;;;;;;2.88;1.25;;;9.30;99.90;;;;;;5071295;28;20040;-68
2022/11/07 07:25:53;;;;;;;3.00;1.20;;;9.40;99.90;;;;;;5073233;28;20063;-68
2022/11/07 07:28:19;;;;;;;2.67;0.90;;;9.60;99.90;;;;;;5071728;28;20060;-68
2022/11/07 07:30:45;;;;;;;2.50;1.15;;;9.70;99.90;;;;;;5073227;28;20037;-68
2022/11/07 07:33:10;;;;;;;4.60;1.25;;;9.80;99.90;;;;;;5073065;28;20037;-69
2022/11/07 07:35:36;;;;;;;3.72;1.40;;;9.90;99.90;;;;;;5070764;28;20478;-71
2022/11/07 07:38:02;;;;;;;2.53;0.68;;;10.10;99.90;;;;;;5071541;28;20040;-68
2022/11/07 07:40:27;;;;;;;2.25;0.75;;;10.30;99.90;;;;;;5073277;28;20037;-72
2022/11/07 07:42:53;;;;;;;1.80;0.60;;;10.50;99.90;;;;;;5072957;28;20085;-69
2022/11/07 07:45:19;;;;;;;1.65;0.63;;;10.70;99.90;;;;;;5073216;28;20043;-71
2022/11/07 07:47:45;;;;;;;4.18;1.02;;;10.90;99.90;;;;;;5073188;28;20044;-69
2022/11/07 07:50:11;;;;;;;3.58;0.80;;;10.90;99.90;;;;;;5075727;28;20514;-71
2022/11/07 07:52:37;;;;;;;4.72;1.13;;;10.60;99.90;;;;;;5076843;28;20395;-72
2022/11/07 07:55:06;;;;;;;2.50;0.95;;;10.40;99.90;;;;;;5076850;28;20403;-69
2022/11/07 07:57:37;;;;;;;3.60;0.80;;;10.30;99.90;;;;;;5077105;28;20067;-69
2022/11/07 08:00:03;;;;;;;3.70;0.98;;;10.40;99.90;;;;;;5075398;28;20032;-71
2022/11/07 08:02:29;;;;;;;1.65;0.85;;;10.80;99.90;;;;;;5075499;28;20039;-72
2022/11/07 08:04:55;;;;;;;7.22;0.70;;;11.00;99.90;;;;;;5076483;28;20040;-69
2022/11/07 08:07:20;;;;;;;3.75;0.70;;;11.20;99.90;;;;;;5075475;28;20040;-68
2022/11/07 08:09:46;;;;;;;5.03;0.65;;;11.40;99.90;;;;;;5076421;28;20434;-72
2022/11/07 08:12:12;;;;;;;3.47;0.73;;;11.50;99.90;;;;;;5074885;28;20622;-70
2022/11/07 08:14:37;;;;;;;3.08;0.80;;;11.70;99.90;;;;;;5076336;28;20040;-72
2022/11/07 08:17:03;;;;;;;4.70;0.75;;;12.00;99.90;;;;;;5076696;28;20044;-72
2022/11/07 08:19:29;;;;;;;1.13;0.50;;;12.20;99.90;;;;;;5076327;28;20538;-69
2022/11/07 08:21:55;;;;;;;1.67;0.75;;;12.50;99.90;;;;;;5076250;28;20129;-70
2022/11/07 08:24:20;;;;;;;1.85;0.60;;;12.60;99.90;;;;;;5074853;28;20452;-73
2022/11/07 08:26:46;;;;;;;1.75;0.70;;;12.70;99.90;;;;;;5074705;28;20127;-72
2022/11/07 08:29:12;;;;;;;1.20;0.57;;;12.80;99.90;;;;;;5074820;28;20504;-70
2022/11/07 08:31:37;;;;;;;2.03;0.77;;;12.80;99.90;;;;;;5076045;28;20040;-73
2022/11/07 08:34:03;;;;;;;0.75;0.55;;;12.70;99.90;;;;;;5075816;28;20041;-72
2022/11/07 08:36:29;;;;;;;3.45;0.68;;;12.80;99.90;;;;;;5075763;28;20128;-69
2022/11/07 08:38:55;;;;;;;2.92;0.90;;;12.90;99.90;;;;;;5074427;28;20060;-70
2022/11/07 08:41:20;;;;;;;1.70;0.73;;;12.90;99.90;;;;;;5074548;28;20036;-70
2022/11/07 08:43:47;;;;;;;4.32;0.63;;;12.80;99.90;;;;;;5074888;28;20146;-70
2022/11/07 08:46:13;;;;;;;3.08;0.80;;;12.80;99.90;;;;;;5075881;28;20048;-71
2022/11/07 08:48:40;;;;;;;3.33;0.75;;;13.00;99.90;;;;;;5075749;28;20040;-71
2022/11/07 08:51:06;;;;;;;2.08;0.75;;;13.00;99.90;;;;;;5075835;28;20098;-72
2022/11/07 08:53:32;;;;;;;4.43;1.15;;;13.20;99.90;;;;;;5073754;28;20085;-70
2022/11/07 08:56:08;;;;;;;4.75;0.60;;;13.20;99.90;;;;;;5075509;28;20065;-69
2022/11/07 08:58:35;;;;;;;4.15;0.93;;;13.40;99.90;;;;;;5075462;28;20085;-70
2022/11/07 09:01:07;;;;;;;3.55;1.02;;;13.80;99.90;;;;;;5075367;28;20052;-73
2022/11/07 09:03:35;;;;;;;1.55;0.50;;;14.10;99.90;;;;;;5090962;28;20032;-70
2022/11/07 09:06:01;;;;;;;2.35;0.57;;;14.00;99.90;;;;;;5074045;28;20033;-72
2022/11/07 09:08:27;;;;;;;1.55;0.73;;;14.00;99.90;;;;;;5073734;28;20036;-73
2022/11/07 09:10:53;;;;;;;3.03;0.63;;;14.00;99.90;;;;;;5073904;28;20159;-70
2022/11/07 09:13:21;;;;;;;4.15;0.90;;;14.30;99.90;;;;;;5073970;28;20480;-70
2022/11/07 09:15:47;;;;;;;2.83;0.60;;;14.70;99.90;;;;;;5075238;28;20415;-73
2022/11/07 09:18:12;;;;;;;3.17;0.85;;;14.70;99.90;;;;;;5075233;28;20035;-69
2022/11/07 09:20:38;;;;;;;1.77;0.80;;;14.70;99.90;;;;;;5075200;28;20450;-73
2022/11/07 09:23:04;;;;;;;2.95;0.75;;;14.80;99.90;;;;;;5074904;28;20522;-73
2022/11/07 09:25:30;;;;;;;4.93;1.25;;;14.90;99.90;;;;;;5070617;28;20032;-72
2022/11/07 09:27:57;;;;;;;3.33;0.88;;;15.00;99.90;;;;;;5053029;28;20089;-72
2022/11/07 09:30:23;;;;;;;3.70;0.90;;;15.20;99.90;;;;;;5067941;28;20032;-73
2022/11/07 09:32:48;;;;;;;2.95;1.13;;;15.30;99.90;;;;;;5054015;28;20055;-74
2022/11/07 09:35:14;;;;;;;4.25;2.05;;;15.40;99.90;;;;;;5054697;28;20060;-70
2022/11/07 09:37:41;;;;;;;8.48;3.83;;;15.50;99.90;;;;;;5054762;28;20051;-70
2022/11/07 09:40:18;;;;;;;6.60;1.90;;;15.60;99.90;;;;;;5054897;28;20044;-73
2022/11/07 09:43:13;;;;;;;27.67;10.73;;;15.80;99.90;;;;;;5054755;28;20041;-70
2022/11/07 09:46:02;;;;;;;14.00;6.10;;;15.60;99.90;;;;;;5053589;28;20040;-70
2022/11/07 09:48:40;;;;;;;6.28;3.30;;;15.80;99.90;;;;;;5053408;28;20029;-71
2022/11/07 09:51:13;;;;;;;7.20;3.08;;;16.00;99.90;;;;;;5054569;28;20041;-70
2022/11/07 09:53:46;;;;;;;10.65;4.50;;;16.20;99.90;;;;;;5054288;28;20048;-72
2022/11/07 09:56:13;;;;;;;5.45;3.15;;;16.40;99.90;;;;;;5054534;28;20577;-72
2022/11/07 09:58:44;;;;;;;5.18;2.65;;;16.40;99.90;;;;;;5054470;28;20527;-73
2022/11/07 10:01:15;;;;;;;4.38;1.85;;;16.50;99.90;;;;;;5054410;28;20040;-70
2022/11/07 10:03:42;;;;;;;3.75;1.70;;;16.30;99.90;;;;;;5054406;28;20132;-70
2022/11/07 10:06:25;;;;;;;3.42;1.38;;;16.50;99.90;;;;;;5053078;28;20028;-73
2022/11/07 10:09:32;;;;;;;6.10;1.90;;;16.50;99.90;;;;;;5054256;28;20447;-73
2022/11/07 10:12:05;;;;;;;3.90;1.13;;;16.70;99.90;;;;;;5046719;28;20040;-70
2022/11/07 10:14:48;;;;;;;3.75;1.50;;;16.80;99.90;;;;;;5052867;28;20049;-70
2022/11/07 10:17:38;;;;;;;8.43;3.45;;;16.80;99.90;;;;;;5054024;28;20045;-73
2022/11/07 10:20:07;;;;;;;5.55;2.65;;;16.80;99.90;;;;;;5054173;28;20043;-73
2022/11/07 10:22:41;;;;;;;5.75;2.10;;;16.80;99.90;;;;;;5054368;28;20115;-72
2022/11/07 10:25:33;;;;;;;2.13;1.10;;;16.90;99.90;;;;;;5054166;28;20467;-70
2022/11/07 10:28:17;;;;;;;3.88;1.15;;;16.90;99.90;;;;;;5054196;28;20041;-73
2022/11/07 10:30:47;;;;;;;9.85;3.65;;;17.10;99.90;;;;;;5052919;28;20043;-71
2022/11/07 10:33:38;;;;;;;5.45;2.42;;;16.90;99.90;;;;;;5053912;28;20048;-71
2022/11/07 10:36:14;;;;;;;4.55;1.30;;;17.10;99.90;;;;;;5053810;28;20220;-71
2022/11/07 10:38:41;;;;;;;4.35;1.42;;;17.00;99.90;;;;;;5053770;28;20460;-70
2022/11/07 10:41:22;;;;;;;4.32;1.30;;;17.00;99.90;;;;;;5053808;28;20048;-71
2022/11/07 10:44:09;;;;;;;3.95;1.40;;;16.90;99.90;;;;;;5053707;28;20116;-72
2022/11/07 10:46:45;;;;;;;3.13;1.65;;;17.10;99.90;;;;;;5053586;28;20049;-71
2022/11/07 10:49:38;;;;;;;6.95;2.17;;;17.10;99.90;;;;;;5052494;28;20079;-70
2022/11/07 10:52:09;;;;;;;6.95;3.03;;;17.20;99.90;;;;;;5062209;28;20032;-71
2022/11/07 10:54:34;;;;;;;19.92;7.18;;;17.30;99.90;;;;;;5073554;28;20048;-72
2022/11/07 10:57:05;;;;;;;7.78;2.83;;;17.10;99.90;;;;;;5073586;28;20040;-71
2022/11/07 10:59:38;;;;;;;8.40;4.00;;;17.00;99.90;;;;;;5072318;28;20044;-71
2022/11/07 11:02:28;;;;;;;7.95;2.17;;;17.00;99.90;;;;;;5073696;28;20072;-71
2022/11/07 11:05:02;;;;;;;5.47;2.05;;;17.00;99.90;;;;;;5072426;28;20433;-71
2022/11/07 11:07:38;;;;;;;7.00;2.75;;;17.00;99.90;;;;;;5073592;28;20046;-71
2022/11/07 11:10:17;;;;;;;15.35;5.03;;;17.00;99.90;;;;;;5073727;28;20056;-72
2022/11/07 11:12:48;;;;;;;4.67;2.37;;;16.90;99.90;;;;;;5072205;28;20536;-71
2022/11/07 11:15:21;;;;;;;4.32;2.00;;;17.20;99.90;;;;;;5072336;28;20083;-72
2022/11/07 11:18:04;;;;;;;4.10;0.82;;;17.10;99.90;;;;;;5073398;28;20032;-71
2022/11/07 11:20:40;;;;;;;2.90;1.00;;;17.10;99.90;;;;;;5072616;28;20044;-72
2022/11/07 11:23:16;;;;;;;6.60;2.53;;;17.10;99.90;;;;;;5073287;28;20060;-71
2022/11/07 11:25:47;;;;;;;5.35;2.17;;;17.00;99.90;;;;;;5076045;28;20062;-71
2022/11/07 11:28:58;;;;;;;6.68;2.53;;;17.10;99.90;;;;;;5077162;28;20039;-71
2022/11/07 11:31:41;;;;;;;3.13;1.00;;;17.20;99.90;;;;;;5018197;28;20410;-72
2022/11/07 11:34:50;;;;;;;3.30;1.27;;;17.20;99.90;;;;;;5018172;28;20073;-72
2022/11/07 11:37:21;;;;;;;8.35;2.47;;;17.10;99.90;;;;;;5073816;28;20067;-71
2022/11/07 11:40:01;;;;;;;2.70;1.27;;;17.10;99.90;;;;;;5077275;28;20040;-71
2022/11/07 11:42:56;;;;;;;4.13;1.17;;;17.20;99.90;;;;;;5076921;28;20051;-71
2022/11/07 11:45:33;;;;;;;1.63;0.70;;;17.30;99.90;;;;;;5072790;28;20452;-72
2022/11/07 11:48:21;;;;;;;5.45;1.33;;;17.00;99.90;;;;;;5075647;28;20400;-71
2022/11/07 11:51:12;;;;;;;3.65;1.02;;;17.00;99.90;;;;;;5076948;28;20488;-71
2022/11/07 11:53:38;;;;;;;2.20;1.05;;;16.80;99.90;;;;;;5038641;28;20041;-71
2022/11/07 11:56:07;;;;;;;1.80;1.50;;;16.80;99.90;;;;;;5076971;28;20049;-71
2022/11/07 11:58:33;;;;;;;4.88;1.58;;;17.00;99.90;;;;;;5075468;28;20178;-71
2022/11/07 12:01:18;;;;;;;3.92;1.95;;;17.20;99.90;;;;;;5076770;28;20127;-71
2022/11/07 12:03:47;;;;;;;5.57;1.60;;;17.00;99.90;;;;;;5076630;28;20044;-71
2022/11/07 12:06:46;;;;;;;3.35;0.90;;;17.00;99.90;;;;;;5076646;28;20028;-70
2022/11/07 12:09:24;;;;;;;5.00;1.70;;;17.00;99.90;;;;;;5074622;28;20032;-71
2022/11/07 12:12:08;;;;;;;1.95;0.98;;;17.00;99.90;;;;;;5076242;28;20061;-71
2022/11/07 12:14:55;;;;;;;0.82;0.55;;;16.70;99.50;;;;;;5076361;28;20044;-71
2022/11/07 12:17:51;;;;;;;1.67;0.70;;;16.70;99.70;;;;;;5076348;28;20048;-71
2022/11/07 12:20:29;;;;;;;1.50;0.90;;;16.60;99.40;;;;;;5075009;28;20060;-71
2022/11/07 12:23:38;;;;;;;1.77;0.82;;;16.80;99.10;;;;;;5074981;28;20134;-71
2022/11/07 12:26:27;;;;;;;4.50;0.98;;;16.90;99.90;;;;;;5090986;28;20040;-71
2022/11/07 12:29:03;;;;;;;2.50;0.95;;;17.10;99.90;;;;;;5076098;28;20046;-71
2022/11/07 12:31:55;;;;;;;2.30;1.13;;;16.90;98.70;;;;;;5074648;28;20082;-71
2022/11/07 12:34:40;;;;;;;1.70;1.05;;;16.80;99.00;;;;;;5075123;28;20500;-71
2022/11/07 12:37:38;;;;;;;3.97;1.30;;;16.90;98.70;;;;;;5075917;28;20036;-71
2022/11/07 12:40:21;;;;;;;2.95;0.77;;;17.00;99.70;;;;;;5075987;28;20078;-71
2022/11/07 12:42:59;;;;;;;1.90;0.88;;;16.90;97.00;;;;;;5074569;28;20037;-71
2022/11/07 12:45:45;;;;;;;2.33;0.70;;;16.80;97.60;;;;;;5075833;28;20047;-71
2022/11/07 12:48:27;;;;;;;1.33;0.60;;;17.00;96.40;;;;;;5074533;28;20488;-71
2022/11/07 12:51:20;;;;;;;1.27;0.63;;;16.90;96.30;;;;;;5074352;28;20044;-71
2022/11/07 12:54:00;;;;;;;0.77;0.70;;;17.00;97.50;;;;;;5074405;28;20060;-71
2022/11/07 12:56:35;;;;;;;2.05;1.05;;;17.10;98.20;;;;;;5075628;28;20491;-71
2022/11/07 12:59:08;;;;;;;1.33;0.50;;;17.10;97.00;;;;;;5075661;28;20032;-71
2022/11/07 13:01:48;;;;;;;0.85;0.30;;;17.10;95.10;;;;;;5075490;28;20045;-71
2022/11/07 13:04:37;;;;;;;0.70;0.40;;;16.90;94.20;;;;;;5075406;28;20458;-71
2022/11/07 13:07:32;;;;;;;1.58;0.90;;;16.80;95.60;;;;;;5075361;28;20032;-71
2022/11/07 13:10:22;;;;;;;2.15;0.40;;;16.80;94.60;;;;;;5075189;28;20492;-71
2022/11/07 13:13:03;;;;;;;2.17;0.40;;;16.80;94.10;;;;;;5074967;28;20407;-71
2022/11/07 13:15:30;;;;;;;0.65;0.40;;;16.80;94.30;;;;;;5075035;28;20512;-71
2022/11/07 13:17:55;;;;;;;0.85;0.60;;;17.00;95.50;;;;;;5075131;28;20029;-71
2022/11/07 13:20:21;;;;;;;1.60;0.70;;;16.90;94.40;;;;;;5073763;28;20520;-71
2022/11/07 13:22:49;;;;;;;1.35;0.50;;;16.80;94.20;;;;;;5074522;28;20039;-71